createdAt,value
2022-10-22T00:01:24.813Z,95944.19
2022-10-22T00:03:53.914Z,95943.44
2022-10-22T00:06:22.035Z,95890.75
2022-10-22T00:08:51.221Z,95922.19
2022-10-22T00:11:21.344Z,95936.72
2022-10-22T00:13:51.707Z,95943.63
2022-10-22T00:16:19.776Z,95911.78
2022-10-22T00:18:47.883Z,95936.72
2022-10-22T00:21:16.355Z,95936.50
2022-10-22T00:23:45.121Z,95939.19
2022-10-22T00:26:13.584Z,95938.50
2022-10-22T00:28:41.850Z,95938.13
2022-10-22T00:31:12.168Z,95940.47
2022-10-22T00:33:40.237Z,95928.19
2022-10-22T00:36:09.102Z,95929.47
2022-10-22T00:38:37.703Z,95924.94
2022-10-22T00:41:06.086Z,95917.38
2022-10-22T00:43:37.742Z,95928.91
2022-10-22T00:46:08.599Z,95916.75
2022-10-22T00:48:38.789Z,95914.41
2022-10-22T00:51:09.622Z,95919.16
2022-10-22T00:53:43.823Z,95897.97
2022-10-22T00:56:12.489Z,95922.00
2022-10-22T00:58:45.772Z,95929.16
2022-10-22T01:01:18.021Z,95920.03
2022-10-22T01:03:47.687Z,95918.50
2022-10-22T01:06:21.822Z,95901.81
2022-10-22T01:08:59.564Z,95902.69
2022-10-22T01:11:33.783Z,95896.22
2022-10-22T01:14:08.789Z,95880.75
2022-10-22T01:16:44.253Z,95890.59
2022-10-22T01:19:30.552Z,95868.41
2022-10-22T01:22:06.100Z,95886.25
2022-10-22T01:24:43.219Z,95884.13
2022-10-22T01:27:23.522Z,95883.34
2022-10-22T01:29:59.071Z,95880.19
2022-10-22T01:32:33.020Z,95841.50
2022-10-22T01:35:04.769Z,95874.09
2022-10-22T01:37:39.809Z,95858.78
2022-10-22T01:40:10.709Z,95866.19
2022-10-22T01:42:39.101Z,95864.06
2022-10-22T01:45:15.141Z,95860.34
2022-10-22T01:47:56.582Z,95855.50
2022-10-22T01:50:38.410Z,95864.88
2022-10-22T01:53:22.722Z,95858.25
2022-10-22T01:56:04.151Z,95863.88
2022-10-22T01:58:40.622Z,95859.00
2022-10-22T02:01:19.208Z,95865.88
2022-10-22T02:03:53.916Z,95863.63
2022-10-22T02:06:26.843Z,95864.47
2022-10-22T02:08:57.708Z,95864.97
2022-10-22T02:11:28.084Z,95865.69
2022-10-22T02:14:00.017Z,95885.13
2022-10-22T02:16:35.883Z,95871.53
2022-10-22T02:19:11.903Z,95867.06
2022-10-22T02:21:40.366Z,95860.88
2022-10-22T02:24:09.737Z,95874.75
2022-10-22T02:26:44.261Z,95797.94
2022-10-22T02:29:17.359Z,95865.97
2022-10-22T02:31:50.295Z,95862.59
2022-10-22T02:34:23.359Z,95865.75
2022-10-22T02:36:53.019Z,95868.72
2022-10-22T02:39:23.154Z,95844.34
2022-10-22T02:41:51.655Z,95873.34
2022-10-22T02:44:22.890Z,95882.41
2022-10-22T02:46:53.212Z,95888.94
2022-10-22T02:49:21.317Z,95885.44
2022-10-22T02:51:49.866Z,95881.94
2022-10-22T02:54:18.143Z,95867.06
2022-10-22T02:56:46.611Z,95839.53
2022-10-22T02:59:14.743Z,95887.50
2022-10-22T03:01:43.878Z,95886.72
2022-10-22T03:04:13.560Z,95888.94
2022-10-22T03:06:44.303Z,95888.22
2022-10-22T03:09:14.368Z,95891.69
2022-10-22T03:11:42.579Z,95891.31
2022-10-22T03:14:11.071Z,95896.28
2022-10-22T03:16:39.660Z,95891.19
2022-10-22T03:19:08.189Z,95880.81
2022-10-22T03:21:45.559Z,95842.75
2022-10-22T03:24:20.036Z,95874.22
2022-10-22T03:26:52.032Z,95871.88
2022-10-22T03:29:23.915Z,95866.56
2022-10-22T03:31:52.239Z,95856.69
2022-10-22T03:34:20.655Z,95875.97
2022-10-22T03:36:51.226Z,95872.94
2022-10-22T03:39:21.307Z,95868.16
2022-10-22T03:41:50.978Z,95869.66
2022-10-22T03:44:20.078Z,95878.44
2022-10-22T03:46:48.310Z,95861.88
2022-10-22T03:49:16.435Z,95856.41
2022-10-22T03:51:45.882Z,95859.50
2022-10-22T03:54:18.168Z,95856.59
2022-10-22T03:56:46.659Z,95877.31
2022-10-22T03:59:15.719Z,95864.56
2022-10-22T04:01:44.547Z,95861.81
2022-10-22T04:04:13.600Z,95868.50
2022-10-22T04:06:41.857Z,95867.53
2022-10-22T04:09:11.315Z,95872.03
2022-10-22T04:11:42.187Z,95859.59
2022-10-22T04:14:12.000Z,95867.69
2022-10-22T04:16:41.579Z,95852.72
2022-10-22T04:19:10.535Z,95849.72
2022-10-22T04:21:38.908Z,95860.69
2022-10-22T04:24:07.545Z,95864.81
2022-10-22T04:26:35.821Z,95862.72
2022-10-22T04:29:05.346Z,95848.47
2022-10-22T04:31:33.606Z,95855.50
2022-10-22T04:34:02.660Z,95807.38
2022-10-22T04:36:31.463Z,95841.75
2022-10-22T04:39:01.685Z,95851.94
2022-10-22T04:41:32.772Z,95859.06
2022-10-22T04:44:05.203Z,95856.22
2022-10-22T04:46:36.493Z,95864.38
2022-10-22T04:49:05.427Z,95857.72
2022-10-22T04:51:34.059Z,95855.81
2022-10-22T04:54:02.889Z,95870.03
2022-10-22T04:56:33.065Z,95868.72
2022-10-22T04:59:03.697Z,95872.94
2022-10-22T05:01:39.933Z,95878.59
2022-10-22T05:04:13.900Z,95884.25
2022-10-22T05:06:42.326Z,95873.88
2022-10-22T05:09:14.649Z,95874.50
2022-10-22T05:11:47.975Z,95876.63
2022-10-22T05:14:20.517Z,95881.75
2022-10-22T05:16:50.563Z,95893.97
2022-10-22T05:19:20.709Z,95906.06
2022-10-22T05:21:48.766Z,95893.59
2022-10-22T05:24:18.112Z,95886.09
2022-10-22T05:26:47.775Z,95891.81
2022-10-22T05:29:16.540Z,95888.72
2022-10-22T05:31:45.846Z,95899.78
2022-10-22T05:34:15.852Z,95897.78
2022-10-22T05:36:45.054Z,95865.53
2022-10-22T05:39:16.695Z,95895.09
2022-10-22T05:41:45.798Z,95909.22
2022-10-22T05:44:14.667Z,95893.09
2022-10-22T05:46:44.674Z,95906.25
2022-10-22T05:49:16.541Z,95902.56
2022-10-22T05:51:44.663Z,95898.28
2022-10-22T05:54:20.298Z,95906.97
2022-10-22T05:56:48.361Z,95832.41
2022-10-22T05:59:16.645Z,95889.00
2022-10-22T06:01:44.806Z,95905.06
2022-10-22T06:04:16.386Z,95894.31
2022-10-22T06:06:47.978Z,95871.34
2022-10-22T06:09:19.400Z,95856.63
2022-10-22T06:11:48.213Z,95905.94
2022-10-22T06:14:16.952Z,95907.56
2022-10-22T06:16:45.413Z,95898.25
2022-10-22T06:19:15.285Z,95899.94
2022-10-22T06:21:44.024Z,95901.84
2022-10-22T06:24:14.613Z,95896.22
2022-10-22T06:26:45.345Z,95909.00
2022-10-22T06:29:16.413Z,95912.13
2022-10-22T06:31:44.568Z,95896.75
2022-10-22T06:34:15.221Z,95889.88
2022-10-22T06:36:45.324Z,95898.81
2022-10-22T06:39:17.008Z,95919.91
2022-10-22T06:41:46.461Z,95909.84
2022-10-22T06:44:16.767Z,95908.13
2022-10-22T06:46:45.007Z,95910.41
2022-10-22T06:49:16.506Z,95860.34
2022-10-22T06:51:44.659Z,95916.66
2022-10-22T06:54:15.071Z,95911.81
2022-10-22T06:56:43.378Z,95906.34
2022-10-22T06:59:12.391Z,95914.13
2022-10-22T07:01:41.093Z,95909.31
2022-10-22T07:04:11.548Z,95891.66
2022-10-22T07:06:39.668Z,95898.88
2022-10-22T07:09:08.533Z,95895.13
2022-10-22T07:11:41.971Z,95899.94
2022-10-22T07:14:10.480Z,95896.50
2022-10-22T07:16:38.963Z,95890.41
2022-10-22T07:19:07.288Z,95891.25
2022-10-22T07:21:35.532Z,95888.38
2022-10-22T07:24:03.905Z,95894.63
2022-10-22T07:26:32.921Z,95899.03
2022-10-22T07:29:03.367Z,95899.53
2022-10-22T07:31:32.027Z,95838.38
2022-10-22T07:34:01.029Z,95887.56
2022-10-22T07:36:30.692Z,95886.84
2022-10-22T07:39:00.635Z,95879.22
2022-10-22T07:41:30.508Z,95880.34
2022-10-22T07:43:59.259Z,95865.63
2022-10-22T07:46:29.128Z,95872.34
2022-10-22T07:48:57.676Z,95874.41
2022-10-22T07:51:28.223Z,95875.16
2022-10-22T07:53:56.500Z,95855.72
2022-10-22T07:56:24.586Z,95853.81
2022-10-22T07:58:52.704Z,95868.94
2022-10-22T08:01:20.857Z,95870.59
2022-10-22T08:03:50.862Z,95878.88
2022-10-22T08:06:19.092Z,95881.69
2022-10-22T08:08:48.227Z,95870.53
2022-10-22T08:11:17.435Z,95848.41
2022-10-22T08:13:45.984Z,95846.25
2022-10-22T08:16:14.682Z,95850.69
2022-10-22T08:18:44.183Z,95828.38
2022-10-22T08:21:17.963Z,95840.53
2022-10-22T08:23:46.260Z,95855.78
2022-10-22T08:26:14.571Z,95843.28
2022-10-22T08:28:42.597Z,95842.91
2022-10-22T08:31:12.619Z,95805.69
2022-10-22T08:33:41.111Z,95832.72
2022-10-22T08:36:09.786Z,95834.91
2022-10-22T08:38:39.512Z,95841.03
2022-10-22T08:41:11.695Z,95850.56
2022-10-22T08:44:14.825Z,95846.72
2022-10-22T08:47:13.259Z,95838.97
2022-10-22T08:49:43.677Z,95841.88
2022-10-22T08:52:14.857Z,95852.22
2022-10-22T08:54:52.001Z,95846.53
2022-10-22T08:57:42.454Z,95825.22
2022-10-22T09:00:15.167Z,95832.00
2022-10-22T09:02:54.232Z,95841.22
2022-10-22T09:05:35.612Z,95844.97
2022-10-22T09:08:06.405Z,95822.94
2022-10-22T09:10:42.004Z,95834.34
2022-10-22T09:13:11.480Z,95845.84
2022-10-22T09:15:43.720Z,95830.47
2022-10-22T09:18:30.058Z,95813.09
2022-10-22T09:21:03.115Z,95818.16
2022-10-22T09:23:39.117Z,95814.38
2022-10-22T09:26:16.056Z,95824.69
2022-10-22T09:28:45.637Z,95785.88
2022-10-22T09:31:15.816Z,95807.94
2022-10-22T09:33:46.036Z,95811.13
2022-10-22T09:36:18.400Z,95809.31
2022-10-22T09:38:49.014Z,95804.28
2022-10-22T09:41:19.681Z,95786.28
2022-10-22T09:43:48.645Z,95801.53
2022-10-22T09:46:23.248Z,95794.31
2022-10-22T09:48:59.829Z,95792.72
2022-10-22T09:51:38.760Z,95783.59
2022-10-22T09:54:21.671Z,95781.78
2022-10-22T09:56:58.088Z,95794.31
2022-10-22T09:59:31.703Z,95779.69
2022-10-22T10:02:20.218Z,95790.91
2022-10-22T10:05:04.425Z,95766.75
2022-10-22T10:07:35.130Z,95773.63
2022-10-22T10:10:04.440Z,95755.91
2022-10-22T10:12:43.827Z,95759.63
2022-10-22T10:15:26.590Z,95765.81
2022-10-22T10:18:08.410Z,95775.00
2022-10-22T10:20:42.718Z,95769.75
2022-10-22T10:23:23.113Z,95752.53
2022-10-22T10:25:59.562Z,95747.94
2022-10-22T10:28:42.017Z,95743.38
2022-10-22T10:31:20.916Z,95727.16
2022-10-22T10:33:58.211Z,95731.31
2022-10-22T10:36:35.684Z,95730.69
2022-10-22T10:39:10.245Z,95713.56
2022-10-22T10:41:51.278Z,95720.44
2022-10-22T10:44:39.536Z,95725.69
2022-10-22T10:47:21.435Z,95721.19
2022-10-22T10:49:52.391Z,95710.63
2022-10-22T10:52:32.005Z,95704.38
2022-10-22T10:55:15.241Z,95713.56
2022-10-22T10:57:55.586Z,95708.69
2022-10-22T11:00:25.527Z,95701.75
2022-10-22T11:03:17.727Z,95681.59
2022-10-22T11:05:51.682Z,95684.63
2022-10-22T11:08:26.465Z,95674.22
2022-10-22T11:11:01.162Z,95672.41
2022-10-22T11:13:33.520Z,95669.16
2022-10-22T11:16:08.137Z,95658.00
2022-10-22T11:18:40.995Z,95619.91
2022-10-22T11:21:20.350Z,95649.75
2022-10-22T11:23:54.890Z,95647.75
2022-10-22T11:26:38.612Z,95630.72
2022-10-22T11:29:13.881Z,95622.56
2022-10-22T11:31:45.564Z,95639.16
2022-10-22T11:34:35.049Z,95626.19
2022-10-22T11:37:06.712Z,95574.28
2022-10-22T11:39:42.900Z,95626.66
2022-10-22T11:42:13.694Z,95595.53
2022-10-22T11:47:27.661Z,95619.28
2022-10-22T11:50:02.488Z,95610.19
2022-10-22T11:52:42.344Z,95613.97
2022-10-22T11:55:36.243Z,95608.81
2022-10-22T11:58:35.209Z,95593.88
2022-10-22T12:01:27.179Z,95603.94
2022-10-22T12:04:18.693Z,95599.34
2022-10-22T12:07:05.285Z,95508.16
2022-10-22T12:09:42.318Z,95590.94
2022-10-22T12:12:16.885Z,95596.41
2022-10-22T12:14:56.456Z,95589.00
2022-10-22T12:17:26.939Z,95573.47
2022-10-22T12:20:02.978Z,95579.25
2022-10-22T12:22:33.507Z,95569.03
2022-10-22T12:25:03.540Z,95567.84
2022-10-22T12:27:37.629Z,95539.25
2022-10-22T12:30:19.814Z,95555.84
2022-10-22T12:32:48.519Z,95582.16
2022-10-22T12:35:20.738Z,95572.84
2022-10-22T12:37:53.487Z,95546.22
2022-10-22T12:40:25.951Z,95560.84
2022-10-22T12:42:56.683Z,95562.03
2022-10-22T12:45:28.894Z,95568.00
2022-10-22T12:47:59.778Z,95564.00
2022-10-22T12:50:34.284Z,95558.00
2022-10-22T12:53:03.663Z,95561.50
2022-10-22T12:55:33.444Z,95548.16
2022-10-22T12:58:06.139Z,95546.69
2022-10-22T13:00:36.275Z,95541.00
2022-10-22T13:03:08.374Z,95544.53
2022-10-22T13:05:40.057Z,95479.84
2022-10-22T13:08:11.689Z,95524.31
2022-10-22T13:10:42.145Z,95545.00
2022-10-22T13:13:34.875Z,95529.31
2022-10-22T13:16:21.335Z,95536.56
2022-10-22T13:18:50.170Z,95537.53
2022-10-22T13:21:29.620Z,95540.34
2022-10-22T13:24:00.141Z,95535.59
2022-10-22T13:26:34.935Z,95532.88
2022-10-22T13:29:10.504Z,95463.88
2022-10-22T13:31:46.197Z,95531.13
2022-10-22T13:34:18.464Z,95519.88
2022-10-22T13:36:48.205Z,95525.38
2022-10-22T13:39:19.361Z,95510.88
2022-10-22T13:41:50.292Z,95528.38
2022-10-22T13:44:18.642Z,95525.38
2022-10-22T13:46:47.648Z,95527.63
2022-10-22T13:49:17.756Z,95517.88
2022-10-22T13:51:47.680Z,95509.13
2022-10-22T13:54:18.376Z,95520.88
2022-10-22T13:56:46.426Z,95513.84
2022-10-22T13:59:16.256Z,95518.84
2022-10-22T14:01:46.898Z,95521.38
2022-10-22T14:04:15.883Z,95527.38
2022-10-22T14:06:44.008Z,95525.13
2022-10-22T14:09:18.266Z,95521.13
2022-10-22T14:11:46.307Z,95515.63
2022-10-22T14:14:17.384Z,95520.38
2022-10-22T14:16:45.518Z,95522.88
2022-10-22T14:19:17.828Z,95515.63
2022-10-22T14:21:45.920Z,95506.88
2022-10-22T14:24:15.207Z,95513.13
2022-10-22T14:26:43.432Z,95507.63
2022-10-22T14:29:12.083Z,95504.88
2022-10-22T14:34:16.109Z,95511.66
2022-10-22T14:36:44.758Z,95494.41
2022-10-22T14:39:13.519Z,95510.38
2022-10-22T14:41:43.779Z,95498.91
2022-10-22T14:44:14.307Z,95502.38
2022-10-22T14:46:44.218Z,95492.41
2022-10-22T14:49:12.556Z,95501.38
2022-10-22T14:51:40.433Z,95507.38
2022-10-22T14:54:08.508Z,95500.84
2022-10-22T14:59:11.764Z,95506.34
2022-10-22T15:01:42.163Z,95516.06
2022-10-22T15:04:10.167Z,95514.13
2022-10-22T15:06:39.508Z,95511.84
2022-10-22T15:09:07.434Z,95508.59
2022-10-22T15:11:35.439Z,95493.09
2022-10-22T15:14:03.515Z,95499.31
2022-10-22T15:16:32.937Z,95492.81
2022-10-22T15:19:01.090Z,95500.00
2022-10-22T15:21:29.123Z,95468.22
2022-10-22T15:23:57.047Z,95493.22
2022-10-22T15:26:26.352Z,95494.91
2022-10-22T15:28:54.836Z,95504.38
2022-10-22T15:31:44.648Z,95504.16
2022-10-22T15:34:12.669Z,95499.94
2022-10-22T15:36:40.826Z,95502.13
2022-10-22T15:39:10.769Z,95507.56
2022-10-22T15:41:38.782Z,95503.25
2022-10-22T15:44:07.152Z,95508.69
2022-10-22T15:46:35.627Z,95511.38
2022-10-22T15:49:05.170Z,95517.97
2022-10-22T15:51:33.142Z,95508.53
2022-10-22T15:54:01.311Z,95507.72
2022-10-22T15:56:30.757Z,95522.41
2022-10-22T15:59:00.668Z,95516.38
2022-10-22T16:01:28.900Z,95519.59
2022-10-22T16:04:02.693Z,95524.31
2022-10-22T16:06:33.947Z,95537.94
2022-10-22T16:09:03.668Z,95533.41
2022-10-22T16:11:31.845Z,95474.22
2022-10-22T16:14:01.110Z,95546.06
2022-10-22T16:16:30.997Z,95543.72
2022-10-22T16:18:58.998Z,95542.13
2022-10-22T16:21:27.778Z,95549.41
2022-10-22T16:23:57.228Z,95554.19
2022-10-22T16:26:25.145Z,95513.06
2022-10-22T16:28:53.673Z,95544.13
2022-10-22T16:31:21.716Z,95547.47
2022-10-22T16:33:50.406Z,95550.97
2022-10-22T16:36:20.227Z,95532.56
2022-10-22T16:38:49.179Z,95545.63
2022-10-22T16:41:20.482Z,95541.03
2022-10-22T16:43:50.101Z,95542.06
2022-10-22T16:46:19.494Z,95550.38
2022-10-22T16:48:48.091Z,95545.84
2022-10-22T16:51:18.223Z,95539.47
2022-10-22T16:53:46.713Z,95535.00
2022-10-22T16:56:16.450Z,95523.75
2022-10-22T16:58:47.950Z,95536.03
2022-10-22T17:01:18.152Z,95529.84
2022-10-22T17:03:46.531Z,95519.44
2022-10-22T17:06:14.975Z,95532.88
2022-10-22T17:08:43.742Z,95534.59
2022-10-22T17:11:13.274Z,95524.06
2022-10-22T17:13:42.535Z,95524.63
2022-10-22T17:16:14.127Z,95530.09
2022-10-22T17:18:43.488Z,95530.56
2022-10-22T17:21:12.413Z,95512.91
2022-10-22T17:23:40.645Z,95512.66
2022-10-22T17:26:10.468Z,95519.41
2022-10-22T17:28:39.652Z,95523.03
2022-10-22T17:31:11.699Z,95535.50
2022-10-22T17:33:41.087Z,95530.84
2022-10-22T17:36:11.975Z,95530.50
2022-10-22T17:38:40.620Z,95538.16
2022-10-22T17:41:13.816Z,95542.72
2022-10-22T17:43:42.623Z,95533.75
2022-10-22T17:46:12.285Z,95530.56
2022-10-22T17:48:41.692Z,95546.19
2022-10-22T17:51:10.568Z,95475.19
2022-10-22T17:53:41.544Z,95535.03
2022-10-22T17:56:11.347Z,95546.69
2022-10-22T17:58:39.203Z,95553.16
2022-10-22T18:01:07.685Z,95545.34
2022-10-22T18:03:35.777Z,95542.50
2022-10-22T18:06:10.123Z,95555.00
2022-10-22T18:08:38.223Z,95547.06
2022-10-22T18:11:10.697Z,95463.88
2022-10-22T18:13:41.216Z,95552.09
2022-10-22T18:16:09.475Z,95549.72
2022-10-22T18:18:37.714Z,95550.06
2022-10-22T18:21:06.330Z,95530.66
2022-10-22T18:23:35.604Z,95555.34
2022-10-22T18:26:05.593Z,95561.38
2022-10-22T18:28:33.931Z,95556.63
2022-10-22T18:31:06.479Z,95548.38
2022-10-22T18:33:34.545Z,95539.75
2022-10-22T18:36:05.538Z,95551.09
2022-10-22T18:38:33.776Z,95542.47
2022-10-22T18:41:03.094Z,95556.59
2022-10-22T18:43:30.992Z,95560.06
2022-10-22T18:45:58.895Z,95556.03
2022-10-22T18:48:26.850Z,95556.38
2022-10-22T18:51:01.212Z,95569.31
2022-10-22T18:53:29.882Z,95561.50
2022-10-22T18:55:57.785Z,95566.31
2022-10-22T18:58:27.074Z,95547.63
2022-10-22T19:00:55.093Z,95559.81
2022-10-22T19:03:22.998Z,95563.91
2022-10-22T19:05:54.263Z,95582.28
2022-10-22T19:08:23.466Z,95582.03
2022-10-22T19:10:51.364Z,95587.94
2022-10-22T19:13:21.194Z,95585.47
2022-10-22T19:15:50.728Z,95597.03
2022-10-22T19:18:18.600Z,95583.22
2022-10-22T19:20:47.839Z,95591.50
2022-10-22T19:23:19.972Z,95562.00
2022-10-22T19:25:48.947Z,95589.22
2022-10-22T19:28:17.217Z,95549.25
2022-10-22T19:30:45.312Z,95592.75
2022-10-22T19:33:14.549Z,95600.31
2022-10-22T19:35:42.600Z,95604.91
2022-10-22T19:38:10.537Z,95600.97
2022-10-22T19:40:38.460Z,95597.69
2022-10-22T19:43:06.426Z,95590.63
2022-10-22T19:45:34.428Z,95571.13
2022-10-22T19:48:02.329Z,95571.47
2022-10-22T19:50:31.737Z,95572.06
2022-10-22T19:53:01.531Z,95567.66
2022-10-22T19:55:29.413Z,95568.16
2022-10-22T19:57:57.916Z,95574.50
2022-10-22T20:00:25.802Z,95568.28
2022-10-22T20:02:53.770Z,95574.50
2022-10-22T20:07:58.501Z,95581.19
2022-10-22T20:10:26.757Z,95586.78
2022-10-22T20:12:54.742Z,95575.91
2022-10-22T20:15:22.748Z,95583.31
2022-10-22T20:17:50.718Z,95578.16
2022-10-22T20:20:20.944Z,95569.41
2022-10-22T20:22:49.880Z,95568.78
2022-10-22T20:25:19.723Z,95574.22
2022-10-22T20:27:47.695Z,95576.03
2022-10-22T20:32:49.484Z,95574.56
2022-10-22T20:35:17.592Z,95574.56
2022-10-22T20:37:45.583Z,95575.16
2022-10-22T20:40:14.483Z,95571.50
2022-10-22T20:42:44.258Z,95573.41
2022-10-22T20:45:12.450Z,95573.81
2022-10-22T20:47:51.308Z,95581.00
2022-10-22T20:50:21.371Z,95572.06
2022-10-22T20:52:50.127Z,95580.81
2022-10-22T20:55:18.180Z,95583.06
2022-10-22T20:57:47.745Z,95580.94
2022-10-22T21:00:16.223Z,95577.00
2022-10-22T21:02:44.203Z,95590.84
2022-10-22T21:05:12.146Z,95579.09
2022-10-22T21:07:40.298Z,95578.59
2022-10-22T21:10:09.306Z,95576.66
2022-10-22T21:12:41.827Z,95586.69
2022-10-22T21:15:12.753Z,95586.72
2022-10-22T21:17:40.866Z,95586.84
2022-10-22T21:22:42.689Z,95599.94
2022-10-22T21:25:11.124Z,95591.19
2022-10-22T21:27:39.158Z,95596.59
2022-10-22T21:30:08.831Z,95590.56
2022-10-22T21:32:38.217Z,95577.78
2022-10-22T21:35:06.925Z,95585.19
2022-10-22T21:37:35.226Z,95579.50
2022-10-22T21:40:03.987Z,95581.97
2022-10-22T21:42:32.048Z,95570.91
2022-10-22T21:45:00.063Z,95583.47
2022-10-22T21:47:28.269Z,95562.34
2022-10-22T21:49:57.497Z,95585.16
2022-10-22T21:52:25.497Z,95583.66
2022-10-22T21:54:53.468Z,95579.00
2022-10-22T21:57:21.343Z,95575.06
2022-10-22T21:59:49.207Z,95562.84
2022-10-22T22:02:17.190Z,95569.81
2022-10-22T22:04:45.442Z,95579.78
2022-10-22T22:07:14.670Z,95579.31
2022-10-22T22:09:42.638Z,95569.19
2022-10-22T22:12:10.539Z,95590.28
2022-10-22T22:14:38.516Z,95592.13
2022-10-22T22:17:06.506Z,95603.03
2022-10-22T22:19:34.519Z,95597.44
2022-10-22T22:22:02.568Z,95597.53
2022-10-22T22:24:31.933Z,95591.63
2022-10-22T22:26:59.846Z,95591.00
2022-10-22T22:29:28.925Z,95572.59
2022-10-22T22:31:57.310Z,95568.78
2022-10-22T22:34:25.326Z,95577.25
2022-10-22T22:36:53.229Z,95570.31
2022-10-22T22:39:23.798Z,95557.06
2022-10-22T22:41:53.200Z,95559.72
2022-10-22T22:44:21.113Z,95558.91
2022-10-22T22:46:49.046Z,95551.75
2022-10-22T22:49:17.629Z,95562.97
2022-10-22T22:51:45.687Z,95573.69
2022-10-22T22:54:13.593Z,95565.00
2022-10-22T22:56:41.604Z,95551.53
2022-10-22T22:59:12.308Z,95564.06
2022-10-22T23:01:40.828Z,95563.13
2022-10-22T23:04:12.371Z,95571.56
2022-10-22T23:06:41.131Z,95569.13
2022-10-22T23:09:11.690Z,95570.66
2022-10-22T23:11:40.597Z,95571.03
2022-10-22T23:14:12.164Z,95576.47
2022-10-22T23:16:42.851Z,95580.91
2022-10-22T23:19:11.472Z,95538.16
2022-10-22T23:21:41.275Z,95575.44
2022-10-22T23:24:12.305Z,95575.94
2022-10-22T23:26:42.385Z,95577.19
2022-10-22T23:29:14.130Z,95574.41
2022-10-22T23:31:43.212Z,95600.06
2022-10-22T23:34:12.869Z,95594.56
2022-10-22T23:36:41.098Z,95585.13
2022-10-22T23:39:11.189Z,95588.28
2022-10-22T23:41:39.761Z,95582.97
2022-10-22T23:44:08.737Z,95587.63
2022-10-22T23:46:39.598Z,95582.72
2022-10-22T23:49:08.210Z,95594.81
2022-10-22T23:51:36.682Z,95602.72
2022-10-22T23:54:06.848Z,95591.47
2022-10-22T23:56:37.075Z,95600.31
2022-10-22T23:59:05.898Z,95584.88
